createdAt,value
2022-09-12T00:01:36.561Z,33.00
2022-09-12T00:04:06.628Z,35.67
2022-09-12T00:06:37.529Z,37.17
2022-09-12T00:09:10.146Z,44.10
2022-09-12T00:11:40.320Z,43.73
2022-09-12T00:14:10.106Z,42.03
2022-09-12T00:16:39.773Z,44.77
2022-09-12T00:19:11.420Z,44.47
2022-09-12T00:21:41.880Z,41.27
2022-09-12T00:24:11.942Z,41.70
2022-09-12T00:26:40.469Z,56.17
2022-09-12T00:29:09.111Z,42.47
2022-09-12T00:31:37.807Z,46.83
2022-09-12T00:34:06.320Z,44.33
2022-09-12T00:36:36.593Z,44.97
2022-09-12T00:39:07.231Z,43.70
2022-09-12T00:41:38.439Z,43.70
2022-09-12T00:44:40.400Z,44.50
2022-09-12T00:47:16.947Z,48.13
2022-09-12T00:49:50.666Z,52.50
2022-09-12T00:52:25.477Z,47.50
2022-09-12T00:54:58.853Z,56.70
2022-09-12T00:57:32.029Z,54.17
2022-09-12T01:00:05.420Z,57.60
2022-09-12T01:02:34.125Z,58.07
2022-09-12T01:05:02.831Z,51.43
2022-09-12T01:07:35.813Z,49.10
2022-09-12T01:10:10.372Z,50.70
2022-09-12T01:12:42.373Z,44.70
2022-09-12T01:15:12.494Z,49.80
2022-09-12T01:17:56.980Z,49.57
2022-09-12T01:21:00.185Z,46.20
2022-09-12T01:24:24.576Z,43.70
2022-09-12T01:27:21.766Z,50.87
2022-09-12T01:30:25.650Z,45.40
2022-09-12T01:33:08.684Z,54.70
2022-09-12T01:35:46.660Z,48.00
2022-09-12T01:38:24.931Z,55.33
2022-09-12T01:41:00.903Z,41.90
2022-09-12T01:43:36.365Z,47.17
2022-09-12T01:46:12.430Z,38.63
2022-09-12T01:48:47.493Z,46.60
2022-09-12T01:51:23.578Z,39.30
2022-09-12T01:53:56.817Z,39.00
2022-09-12T01:56:28.364Z,41.87
2022-09-12T01:59:02.898Z,49.67
2022-09-12T02:01:34.192Z,38.83
2022-09-12T02:04:09.102Z,44.10
2022-09-12T02:06:45.049Z,41.10
2022-09-12T02:09:20.303Z,41.33
2022-09-12T02:11:51.948Z,42.17
2022-09-12T02:14:24.541Z,38.00
2022-09-12T02:16:56.792Z,39.27
2022-09-12T02:19:32.462Z,47.30
2022-09-12T02:22:03.769Z,38.33
2022-09-12T02:24:36.834Z,45.23
2022-09-12T02:27:09.195Z,37.40
2022-09-12T02:29:38.001Z,41.20
2022-09-12T02:32:11.759Z,41.00
2022-09-12T02:34:49.536Z,42.97
2022-09-12T02:37:26.145Z,43.07
2022-09-12T02:39:56.008Z,44.20
2022-09-12T02:42:25.498Z,52.90
2022-09-12T02:44:57.240Z,50.47
2022-09-12T02:47:31.413Z,40.73
2022-09-12T02:50:02.180Z,41.10
2022-09-12T02:52:31.944Z,43.17
2022-09-12T02:55:00.912Z,41.70
2022-09-12T02:57:29.796Z,52.73
2022-09-12T03:00:01.590Z,52.57
2022-09-12T03:02:40.740Z,46.20
2022-09-12T03:05:24.273Z,39.70
2022-09-12T03:08:15.553Z,43.00
2022-09-12T03:10:57.325Z,43.67
2022-09-12T03:13:33.288Z,45.73
2022-09-12T03:16:10.233Z,44.87
2022-09-12T03:18:50.193Z,40.63
2022-09-12T03:21:27.264Z,51.17
2022-09-12T03:24:07.749Z,44.17
2022-09-12T03:26:41.404Z,50.10
2022-09-12T03:29:12.407Z,44.60
2022-09-12T03:31:51.474Z,44.57
2022-09-12T03:34:20.522Z,51.37
2022-09-12T03:36:51.720Z,40.43
2022-09-12T03:39:21.146Z,38.80
2022-09-12T03:41:50.015Z,53.47
2022-09-12T03:44:18.650Z,55.97
2022-09-12T03:46:47.902Z,58.60
2022-09-12T03:49:16.680Z,43.23
2022-09-12T03:51:45.960Z,49.37
2022-09-12T03:54:16.180Z,51.70
2022-09-12T03:56:44.758Z,49.73
2022-09-12T03:59:13.370Z,55.07
2022-09-12T04:01:42.447Z,54.50
2022-09-12T04:04:10.965Z,48.40
2022-09-12T04:06:39.473Z,54.27
2022-09-12T04:09:08.000Z,67.07
2022-09-12T04:11:37.949Z,68.17
2022-09-12T04:14:06.573Z,52.83
2022-09-12T04:16:35.080Z,57.93
2022-09-12T04:19:03.773Z,61.03
2022-09-12T04:21:32.271Z,60.43
2022-09-12T04:24:00.744Z,63.60
2022-09-12T04:26:29.851Z,76.13
2022-09-12T04:28:59.918Z,146.83
2022-09-12T04:31:28.652Z,95.53
2022-09-12T04:33:58.776Z,78.43
2022-09-12T04:36:28.260Z,89.43
2022-09-12T04:38:57.018Z,80.53
2022-09-12T04:41:27.164Z,85.43
2022-09-12T04:43:59.577Z,84.03
2022-09-12T04:46:29.343Z,87.40
2022-09-12T04:48:57.959Z,68.77
2022-09-12T04:51:29.197Z,69.13
2022-09-12T04:54:00.679Z,69.03
2022-09-12T04:56:30.655Z,76.27
2022-09-12T04:59:02.889Z,65.43
2022-09-12T05:01:31.982Z,65.63
2022-09-12T05:04:01.011Z,65.53
2022-09-12T05:06:31.548Z,74.33
2022-09-12T05:09:01.917Z,63.17
2022-09-12T05:12:02.136Z,61.10
2022-09-12T05:14:23.177Z,68.83
2022-09-12T05:16:51.983Z,61.90
2022-09-12T05:19:20.736Z,71.83
2022-09-12T05:21:49.374Z,60.33
2022-09-12T05:24:18.202Z,75.03
2022-09-12T05:26:46.800Z,66.83
2022-09-12T05:29:15.454Z,62.30
2022-09-12T05:31:45.938Z,58.63
2022-09-12T05:34:14.875Z,51.90
2022-09-12T05:36:43.546Z,65.33
2022-09-12T05:39:12.149Z,53.07
2022-09-12T05:41:40.986Z,50.43
2022-09-12T05:44:14.176Z,43.80
2022-09-12T05:46:48.621Z,57.80
2022-09-12T05:49:17.612Z,47.20
2022-09-12T05:51:47.433Z,47.33
2022-09-12T05:54:18.028Z,47.07
2022-09-12T05:56:46.937Z,46.27
2022-09-12T05:59:17.988Z,44.20
2022-09-12T06:01:48.847Z,45.10
2022-09-12T06:04:18.021Z,37.60
2022-09-12T06:06:48.733Z,39.37
2022-09-12T06:09:18.421Z,40.83
2022-09-12T06:11:47.854Z,41.77
2022-09-12T06:14:19.530Z,42.37
2022-09-12T06:16:49.950Z,32.40
2022-09-12T06:19:20.187Z,32.37
2022-09-12T06:21:49.653Z,40.23
2022-09-12T06:24:18.736Z,47.00
2022-09-12T06:26:48.105Z,35.80
2022-09-12T06:29:16.928Z,34.20
2022-09-12T06:31:45.801Z,35.50
2022-09-12T06:34:16.935Z,35.63
2022-09-12T06:36:46.931Z,29.90
2022-09-12T06:39:17.255Z,35.07
2022-09-12T06:41:46.646Z,37.63
2022-09-12T06:44:17.123Z,30.37
2022-09-12T06:46:46.326Z,33.40
2022-09-12T06:49:17.634Z,30.93
2022-09-12T06:51:46.241Z,33.97
2022-09-12T06:54:16.842Z,30.53
2022-09-12T06:56:46.037Z,30.50
2022-09-12T06:59:14.619Z,29.87
2022-09-12T07:01:43.165Z,37.50
2022-09-12T07:04:12.518Z,25.90
2022-09-12T07:06:44.644Z,26.97
2022-09-12T07:09:16.334Z,33.43
2022-09-12T07:11:45.699Z,34.47
2022-09-12T07:14:15.893Z,30.30
2022-09-12T07:16:44.603Z,35.33
2022-09-12T07:19:13.337Z,30.33
2022-09-12T07:21:43.866Z,28.50
2022-09-12T07:24:13.036Z,27.30
2022-09-12T07:26:42.647Z,23.77
2022-09-12T07:32:06.951Z,28.03
2022-09-12T07:34:36.302Z,31.00
2022-09-12T07:37:06.344Z,30.93
2022-09-12T07:39:35.064Z,29.23
2022-09-12T07:42:03.612Z,29.20
2022-09-12T07:44:32.111Z,29.50
2022-09-12T07:47:02.085Z,27.43
2022-09-12T07:49:30.748Z,24.80
2022-09-12T07:52:01.012Z,21.93
2022-09-12T07:54:31.909Z,26.00
2022-09-12T07:57:00.592Z,21.67
2022-09-12T07:59:51.453Z,22.40
2022-09-12T08:02:18.022Z,28.13
2022-09-12T08:04:48.147Z,18.17
2022-09-12T08:07:18.359Z,23.97
2022-09-12T08:09:48.511Z,24.17
2022-09-12T08:12:17.741Z,24.73
2022-09-12T08:14:46.132Z,29.67
2022-09-12T08:17:14.767Z,17.70
2022-09-12T08:19:43.805Z,20.77
2022-09-12T08:22:13.194Z,20.47
2022-09-12T08:24:41.801Z,16.07
2022-09-12T08:27:13.118Z,19.43
2022-09-12T08:29:41.669Z,15.57
2022-09-12T08:32:12.428Z,13.83
2022-09-12T08:34:41.152Z,19.17
2022-09-12T08:37:09.866Z,16.50
2022-09-12T08:39:38.747Z,17.70
2022-09-12T08:42:08.222Z,19.33
2022-09-12T08:45:06.392Z,11.83
2022-09-12T08:47:37.856Z,24.70
2022-09-12T08:50:15.377Z,20.70
2022-09-12T08:52:54.749Z,17.30
2022-09-12T08:55:32.899Z,14.40
2022-09-12T08:58:02.485Z,17.83
2022-09-12T09:00:41.430Z,12.70
2022-09-12T09:03:40.069Z,12.30
2022-09-12T09:06:19.824Z,10.17
2022-09-12T09:08:58.420Z,11.53
2022-09-12T09:11:58.258Z,10.67
2022-09-12T09:14:53.976Z,10.60
2022-09-12T09:17:28.860Z,9.27
2022-09-12T09:20:04.942Z,10.70
2022-09-12T09:22:42.586Z,14.83
2022-09-12T09:25:22.555Z,8.20
2022-09-12T09:27:58.261Z,13.20
2022-09-12T09:30:27.068Z,13.67
2022-09-12T09:33:00.801Z,10.47
2022-09-12T09:35:40.321Z,7.97
2022-09-12T09:38:27.374Z,9.30
2022-09-12T09:41:11.824Z,5.43
2022-09-12T09:43:42.913Z,6.93
2022-09-12T09:46:16.635Z,12.53
2022-09-12T09:48:49.719Z,5.60
2022-09-12T09:51:25.412Z,4.93
2022-09-12T09:53:57.561Z,9.60
2022-09-12T09:56:32.950Z,8.20
2022-09-12T09:59:11.942Z,16.83
2022-09-12T10:01:47.343Z,5.27
2022-09-12T10:04:23.169Z,5.37
2022-09-12T10:06:54.562Z,5.10
2022-09-12T10:09:27.074Z,17.77
2022-09-12T10:11:57.169Z,6.00
2022-09-12T10:14:32.651Z,8.43
2022-09-12T10:17:01.180Z,5.90
2022-09-12T10:19:37.809Z,20.50
2022-09-12T10:22:07.821Z,6.23
2022-09-12T10:24:41.266Z,27.87
2022-09-12T10:27:16.342Z,5.47
2022-09-12T10:29:48.531Z,6.90
2022-09-12T10:32:30.493Z,4.23
2022-09-12T10:35:03.511Z,6.17
2022-09-12T10:37:35.793Z,34.37
2022-09-12T10:40:06.747Z,10.37
2022-09-12T10:42:47.811Z,6.93
2022-09-12T10:45:21.683Z,6.43
2022-09-12T10:47:50.618Z,4.43
2022-09-12T10:50:29.441Z,4.57
2022-09-12T10:53:15.733Z,3.83
2022-09-12T10:56:02.490Z,5.30
2022-09-12T10:59:02.597Z,5.47
2022-09-12T11:01:40.250Z,6.60
2022-09-12T11:04:32.368Z,9.97
2022-09-12T11:07:22.912Z,6.07
2022-09-12T11:09:59.974Z,12.77
2022-09-12T11:12:37.691Z,5.83
2022-09-12T11:15:23.215Z,7.10
2022-09-12T11:17:57.310Z,3.00
2022-09-12T11:20:41.332Z,4.03
2022-09-12T11:23:32.622Z,3.20
2022-09-12T11:26:09.917Z,3.07
2022-09-12T11:28:47.482Z,3.07
2022-09-12T11:31:36.168Z,2.27
2022-09-12T11:34:10.078Z,3.53
2022-09-12T11:36:47.265Z,7.57
2022-09-12T11:39:18.477Z,3.70
2022-09-12T11:41:52.328Z,4.67
2022-09-12T11:44:25.276Z,2.60
2022-09-12T11:46:54.536Z,2.97
2022-09-12T11:49:33.556Z,5.60
2022-09-12T11:52:08.400Z,20.13
2022-09-12T11:54:42.853Z,16.00
2022-09-12T11:57:17.970Z,2.53
2022-09-12T11:59:51.111Z,3.43
2022-09-12T12:02:27.738Z,7.37
2022-09-12T12:05:16.395Z,4.97
2022-09-12T12:07:53.118Z,2.67
2022-09-12T12:10:36.801Z,7.67
2022-09-12T12:13:13.922Z,10.43
2022-09-12T12:15:48.947Z,3.40
2022-09-12T12:18:22.588Z,2.23
2022-09-12T12:20:52.164Z,2.37
2022-09-12T12:23:30.452Z,3.10
2022-09-12T12:26:01.757Z,2.87
2022-09-12T12:29:01.468Z,4.63
2022-09-12T12:31:30.073Z,3.40
2022-09-12T12:34:27.757Z,3.77
2022-09-12T12:36:56.687Z,4.93
2022-09-12T12:40:05.867Z,3.30
2022-09-12T12:43:22.529Z,8.17
2022-09-12T12:46:14.596Z,21.97
2022-09-12T12:49:11.037Z,6.77
2022-09-12T12:51:57.411Z,2.30
2022-09-12T12:54:55.466Z,5.53
2022-09-12T12:57:49.303Z,9.33
2022-09-12T13:00:32.106Z,2.47
2022-09-12T13:03:07.174Z,17.13
2022-09-12T13:05:42.637Z,3.63
2022-09-12T13:08:28.462Z,4.07
2022-09-12T13:11:01.005Z,2.40
2022-09-12T13:13:36.333Z,5.00
2022-09-12T13:16:05.245Z,8.10
2022-09-12T13:18:44.087Z,3.47
2022-09-12T13:21:15.577Z,2.80
2022-09-12T13:23:45.141Z,2.83
2022-09-12T13:26:15.606Z,20.43
2022-09-12T13:28:44.059Z,4.70
2022-09-12T13:31:19.393Z,3.03
2022-09-12T13:33:52.180Z,10.03
2022-09-12T13:36:47.614Z,11.53
2022-09-12T13:39:27.059Z,2.10
2022-09-12T13:42:37.357Z,3.93
2022-09-12T13:45:12.919Z,7.50
2022-09-12T13:47:45.255Z,8.23
2022-09-12T13:50:20.238Z,73.33
2022-09-12T13:52:53.298Z,3.13
2022-09-12T13:55:44.518Z,4.53
2022-09-12T13:59:28.488Z,12.73
2022-09-12T14:02:22.851Z,13.13
2022-09-12T14:05:14.746Z,2.10
2022-09-12T14:08:17.334Z,9.80
2022-09-12T14:10:50.529Z,4.13
2022-09-12T14:13:23.602Z,4.27
2022-09-12T14:15:54.634Z,27.63
2022-09-12T14:18:25.751Z,13.53
2022-09-12T14:20:57.171Z,2.43
2022-09-12T14:23:33.533Z,8.90
2022-09-12T14:26:05.704Z,2.50
2022-09-12T14:28:35.205Z,11.63
2022-09-12T14:31:06.579Z,2.23
2022-09-12T14:33:47.818Z,5.47
2022-09-12T14:36:22.980Z,8.60
2022-09-12T14:38:56.070Z,27.03
2022-09-12T14:41:28.535Z,7.03
2022-09-12T14:44:00.250Z,21.00
2022-09-12T14:46:32.913Z,1.40
2022-09-12T14:49:08.072Z,1.97
2022-09-12T14:51:38.556Z,2.17
2022-09-12T14:54:36.106Z,1.93
2022-09-12T14:57:07.329Z,2.57
2022-09-12T14:59:40.839Z,1.73
2022-09-12T15:02:38.197Z,2.00
2022-09-12T15:05:22.703Z,2.93
2022-09-12T15:07:58.121Z,1.60
2022-09-12T15:10:32.167Z,3.60
2022-09-12T15:13:15.199Z,1.77
2022-09-12T15:15:45.151Z,3.50
2022-09-12T15:18:14.930Z,6.67
2022-09-12T15:20:45.835Z,2.83
2022-09-12T15:23:34.485Z,1.50
2022-09-12T15:31:28.917Z,2.50
2022-09-12T15:33:58.956Z,7.60
2022-09-12T15:36:28.863Z,3.03
2022-09-12T15:38:57.641Z,7.50
2022-09-12T15:41:31.049Z,2.47
2022-09-12T15:43:59.734Z,2.43
2022-09-12T15:46:31.805Z,1.70
2022-09-12T15:49:09.052Z,1.90
2022-09-12T15:53:01.725Z,12.33
2022-09-12T15:55:34.068Z,3.70
2022-09-12T15:58:13.264Z,9.20
2022-09-12T16:00:45.204Z,2.30
2022-09-12T16:03:50.684Z,9.27
2022-09-12T16:06:26.185Z,3.20
2022-09-12T16:08:59.366Z,3.50
2022-09-12T16:11:36.683Z,3.20
2022-09-12T16:14:07.193Z,4.80
2022-09-12T16:16:37.571Z,30.67
2022-09-12T16:19:09.765Z,21.17
2022-09-12T16:21:41.631Z,7.93
2022-09-12T16:24:29.264Z,18.60
2022-09-12T16:27:01.152Z,17.13
2022-09-12T16:29:46.954Z,6.63
2022-09-12T16:32:15.441Z,22.33
2022-09-12T16:34:45.683Z,6.57
2022-09-12T16:37:14.125Z,10.50
2022-09-12T16:39:42.535Z,8.73
2022-09-12T16:42:10.971Z,10.53
2022-09-12T16:44:39.413Z,18.40
2022-09-12T16:47:07.917Z,8.60
2022-09-12T16:49:36.403Z,7.50
2022-09-12T16:52:06.785Z,18.30
2022-09-12T16:54:35.464Z,16.83
2022-09-12T16:57:05.303Z,6.63
2022-09-12T16:59:34.142Z,4.20
2022-09-12T17:02:03.251Z,6.73
2022-09-12T17:04:31.822Z,5.10
2022-09-12T17:07:00.315Z,12.37
2022-09-12T17:09:30.220Z,6.97
2022-09-12T17:11:58.902Z,4.10
2022-09-12T17:14:27.423Z,10.13
2022-09-12T17:16:55.845Z,9.53
2022-09-12T17:19:26.776Z,7.20
2022-09-12T17:21:55.546Z,10.83
2022-09-12T17:24:24.178Z,19.53
2022-09-12T17:26:54.644Z,8.10
2022-09-12T17:29:23.320Z,2.87
2022-09-12T17:31:51.915Z,10.13
2022-09-12T17:34:20.409Z,5.77
2022-09-12T17:36:49.257Z,3.30
2022-09-12T17:39:17.852Z,6.43
2022-09-12T17:41:47.220Z,4.33
2022-09-12T17:44:17.384Z,7.40
2022-09-12T17:46:46.177Z,12.20
2022-09-12T17:49:16.563Z,15.07
2022-09-12T17:51:45.867Z,9.93
2022-09-12T17:54:16.700Z,8.10
2022-09-12T17:56:46.561Z,7.50
2022-09-12T17:59:18.566Z,5.37
2022-09-12T18:02:07.385Z,12.23
2022-09-12T18:04:36.166Z,7.17
2022-09-12T18:07:04.976Z,5.20
2022-09-12T18:09:33.601Z,4.20
2022-09-12T18:12:02.153Z,7.50
2022-09-12T18:14:31.990Z,5.20
2022-09-12T18:17:00.581Z,3.90
2022-09-12T18:19:29.682Z,4.00
2022-09-12T18:21:58.486Z,6.10
2022-09-12T18:24:27.519Z,4.60
2022-09-12T18:26:57.534Z,4.70
2022-09-12T18:29:27.975Z,6.50
2022-09-12T18:31:57.926Z,6.63
2022-09-12T18:34:26.544Z,11.77
2022-09-12T18:36:55.565Z,7.20
2022-09-12T18:39:27.549Z,10.40
2022-09-12T18:41:56.920Z,9.03
2022-09-12T18:44:25.522Z,7.67
2022-09-12T18:46:54.033Z,10.07
2022-09-12T18:49:24.206Z,6.27
2022-09-12T18:51:52.774Z,10.87
2022-09-12T18:54:21.419Z,10.23
2022-09-12T18:56:50.235Z,6.10
2022-09-12T18:59:18.908Z,8.93
2022-09-12T19:01:48.032Z,16.23
2022-09-12T19:04:17.016Z,26.90
2022-09-12T19:06:48.771Z,10.40
2022-09-12T19:09:20.658Z,11.00
2022-09-12T19:11:52.829Z,8.60
2022-09-12T19:14:23.727Z,8.50
2022-09-12T19:16:52.967Z,6.57
2022-09-12T19:19:21.815Z,14.97
2022-09-12T19:21:52.010Z,8.93
2022-09-12T19:24:21.831Z,20.87
2022-09-12T19:26:50.739Z,13.93
2022-09-12T19:29:19.687Z,13.07
2022-09-12T19:31:48.402Z,12.13
2022-09-12T19:34:17.155Z,12.33
2022-09-12T19:36:46.931Z,8.40
2022-09-12T19:39:19.736Z,8.80
2022-09-12T19:41:49.582Z,10.40
2022-09-12T19:44:19.296Z,13.10
2022-09-12T19:46:47.954Z,11.20
2022-09-12T19:52:03.506Z,8.77
2022-09-12T19:54:33.361Z,6.77
2022-09-12T19:57:01.867Z,8.60
2022-09-12T19:59:30.347Z,15.73
2022-09-12T20:01:59.232Z,8.57
2022-09-12T20:04:27.864Z,19.50
2022-09-12T20:06:56.749Z,18.37
2022-09-12T20:09:25.708Z,14.50
2022-09-12T20:11:55.731Z,8.80
2022-09-12T20:14:24.497Z,7.80
2022-09-12T20:16:53.016Z,10.90
2022-09-12T20:19:21.670Z,8.20
2022-09-12T20:21:50.524Z,11.53
2022-09-12T20:24:19.417Z,13.43
2022-09-12T20:26:47.893Z,9.00
2022-09-12T20:29:17.767Z,7.53
2022-09-12T20:31:46.303Z,6.47
2022-09-12T20:34:18.962Z,10.97
2022-09-12T20:36:47.661Z,35.03
2022-09-12T20:39:18.336Z,15.93
2022-09-12T20:41:47.018Z,12.80
2022-09-12T20:44:17.339Z,9.67
2022-09-12T20:46:45.912Z,13.83
2022-09-12T20:49:14.448Z,10.17
2022-09-12T20:51:42.956Z,14.33
2022-09-12T20:54:12.255Z,13.77
2022-09-12T20:56:40.725Z,13.53
2022-09-12T20:59:11.015Z,11.20
2022-09-12T21:01:42.149Z,17.30
2022-09-12T21:04:14.800Z,16.83
2022-09-12T21:06:43.661Z,9.10
2022-09-12T21:09:12.205Z,9.67
2022-09-12T21:11:40.638Z,15.47
2022-09-12T21:14:09.242Z,9.60
2022-09-12T21:16:38.716Z,10.53
2022-09-12T21:19:08.914Z,12.67
2022-09-12T21:21:37.522Z,17.73
2022-09-12T21:24:06.341Z,12.13
2022-09-12T21:26:34.849Z,9.80
2022-09-12T21:29:03.523Z,12.30
2022-09-12T21:31:32.024Z,17.80
2022-09-12T21:34:00.520Z,11.90
2022-09-12T21:36:30.316Z,9.30
2022-09-12T21:39:00.090Z,21.70
2022-09-12T21:41:28.791Z,27.20
2022-09-12T21:43:57.298Z,10.60
2022-09-12T21:46:26.056Z,11.90
2022-09-12T21:48:54.522Z,9.10
2022-09-12T21:51:22.988Z,11.27
2022-09-12T21:53:52.809Z,11.33
2022-09-12T21:56:21.236Z,12.37
2022-09-12T21:58:49.729Z,9.50
2022-09-12T22:01:18.245Z,10.37
2022-09-12T22:03:46.791Z,13.53
2022-09-12T22:06:17.777Z,12.03
2022-09-12T22:08:49.115Z,10.47
2022-09-12T22:11:20.356Z,11.33
2022-09-12T22:13:48.917Z,9.20
2022-09-12T22:16:17.787Z,14.60
2022-09-12T22:18:47.079Z,16.60
2022-09-12T22:21:17.815Z,12.93
2022-09-12T22:24:04.405Z,11.30
2022-09-12T22:26:42.112Z,15.60
2022-09-12T22:29:11.227Z,21.27
2022-09-12T22:31:40.256Z,15.63
2022-09-12T22:34:08.935Z,16.57
2022-09-12T22:36:39.103Z,12.97
2022-09-12T22:39:08.016Z,11.40
2022-09-12T22:41:37.848Z,12.70
2022-09-12T22:44:06.689Z,15.20
2022-09-12T22:46:35.350Z,16.83
2022-09-12T22:49:04.763Z,13.70
2022-09-12T22:51:33.888Z,12.87
2022-09-12T22:54:02.440Z,14.17
2022-09-12T22:56:30.849Z,12.10
2022-09-12T22:59:01.213Z,14.27
2022-09-12T23:01:29.842Z,14.77
2022-09-12T23:03:58.515Z,17.70
2022-09-12T23:06:27.303Z,15.40
2022-09-12T23:08:56.223Z,16.27
2022-09-12T23:11:25.038Z,23.73
2022-09-12T23:13:53.524Z,17.50
2022-09-12T23:16:24.977Z,22.93
2022-09-12T23:18:53.935Z,19.50
2022-09-12T23:21:23.365Z,16.10
2022-09-12T23:23:52.252Z,16.07
2022-09-12T23:26:22.211Z,24.53
2022-09-12T23:28:52.757Z,16.20
2022-09-12T23:31:23.541Z,12.07
2022-09-12T23:33:54.609Z,13.20
2022-09-12T23:36:23.828Z,14.30
2022-09-12T23:38:52.961Z,19.37
2022-09-12T23:41:21.950Z,15.53
2022-09-12T23:43:50.613Z,17.90
2022-09-12T23:46:20.476Z,13.10
2022-09-12T23:48:50.672Z,15.17
2022-09-12T23:51:19.144Z,16.67
2022-09-12T23:53:47.681Z,16.87
2022-09-12T23:56:16.134Z,13.40
2022-09-12T23:58:44.891Z,11.90
